sensor_id;sensor_type;location;lat;lon;timestamp;P1;durP1;ratioP1;P2;durP2;ratioP2
52614;SDS011;38508;53.158;6.614;2022-07-30T00:02:18;6.97;;;3.63;;
52614;SDS011;38508;53.158;6.614;2022-07-30T00:04:44;6.25;;;3.35;;
52614;SDS011;38508;53.158;6.614;2022-07-30T00:07:10;7.10;;;3.80;;
52614;SDS011;38508;53.158;6.614;2022-07-30T00:09:36;5.63;;;3.60;;
52614;SDS011;38508;53.158;6.614;2022-07-30T00:12:03;6.25;;;3.78;;
52614;SDS011;38508;53.158;6.614;2022-07-30T00:14:29;5.00;;;3.58;;
52614;SDS011;38508;53.158;6.614;2022-07-30T00:16:55;6.22;;;3.55;;
52614;SDS011;38508;53.158;6.614;2022-07-30T00:19:21;7.25;;;3.97;;
52614;SDS011;38508;53.158;6.614;2022-07-30T00:21:46;7.30;;;4.25;;
52614;SDS011;38508;53.158;6.614;2022-07-30T00:24:12;6.53;;;3.95;;
52614;SDS011;38508;53.158;6.614;2022-07-30T00:26:38;8.10;;;3.95;;
52614;SDS011;38508;53.158;6.614;2022-07-30T00:29:04;6.45;;;4.00;;
52614;SDS011;38508;53.158;6.614;2022-07-30T00:31:30;6.75;;;3.40;;
52614;SDS011;38508;53.158;6.614;2022-07-30T00:33:56;6.05;;;3.85;;
52614;SDS011;38508;53.158;6.614;2022-07-30T00:36:22;6.88;;;4.07;;
52614;SDS011;38508;53.158;6.614;2022-07-30T00:38:47;8.40;;;4.20;;
52614;SDS011;38508;53.158;6.614;2022-07-30T00:41:13;6.80;;;4.35;;
52614;SDS011;38508;53.158;6.614;2022-07-30T00:43:39;5.53;;;4.30;;
52614;SDS011;38508;53.158;6.614;2022-07-30T00:46:05;7.90;;;4.60;;
52614;SDS011;38508;53.158;6.614;2022-07-30T00:48:30;6.32;;;4.60;;
52614;SDS011;38508;53.158;6.614;2022-07-30T00:50:56;11.82;;;4.97;;
52614;SDS011;38508;53.158;6.614;2022-07-30T00:53:22;7.03;;;5.00;;
52614;SDS011;38508;53.158;6.614;2022-07-30T00:55:47;6.28;;;4.63;;
52614;SDS011;38508;53.158;6.614;2022-07-30T00:58:13;6.00;;;4.63;;
52614;SDS011;38508;53.158;6.614;2022-07-30T01:00:39;11.60;;;4.90;;
52614;SDS011;38508;53.158;6.614;2022-07-30T01:03:04;11.20;;;5.47;;
52614;SDS011;38508;53.158;6.614;2022-07-30T01:05:31;7.22;;;4.60;;
52614;SDS011;38508;53.158;6.614;2022-07-30T01:07:57;6.63;;;4.70;;
52614;SDS011;38508;53.158;6.614;2022-07-30T01:10:23;10.15;;;5.32;;
52614;SDS011;38508;53.158;6.614;2022-07-30T01:12:48;7.90;;;5.30;;
52614;SDS011;38508;53.158;6.614;2022-07-30T01:15:16;8.40;;;4.68;;
52614;SDS011;38508;53.158;6.614;2022-07-30T01:17:42;6.97;;;4.60;;
52614;SDS011;38508;53.158;6.614;2022-07-30T01:20:17;7.30;;;4.88;;
52614;SDS011;38508;53.158;6.614;2022-07-30T01:27:58;6.28;;;4.20;;
52614;SDS011;38508;53.158;6.614;2022-07-30T01:30:30;5.40;;;3.47;;
52614;SDS011;38508;53.158;6.614;2022-07-30T01:32:58;4.55;;;3.45;;
52614;SDS011;38508;53.158;6.614;2022-07-30T01:35:26;3.80;;;3.05;;
52614;SDS011;38508;53.158;6.614;2022-07-30T01:37:54;3.08;;;2.50;;
52614;SDS011;38508;53.158;6.614;2022-07-30T01:40:21;2.60;;;2.33;;
52614;SDS011;38508;53.158;6.614;2022-07-30T01:42:48;3.50;;;2.67;;
52614;SDS011;38508;53.158;6.614;2022-07-30T01:45:21;2.85;;;2.30;;
52614;SDS011;38508;53.158;6.614;2022-07-30T01:47:49;2.92;;;2.22;;
52614;SDS011;38508;53.158;6.614;2022-07-30T01:50:17;2.72;;;1.48;;
52614;SDS011;38508;53.158;6.614;2022-07-30T01:52:46;4.30;;;1.75;;
52614;SDS011;38508;53.158;6.614;2022-07-30T01:55:15;3.40;;;2.50;;
52614;SDS011;38508;53.158;6.614;2022-07-30T01:57:44;5.00;;;2.00;;
52614;SDS011;38508;53.158;6.614;2022-07-30T02:00:12;4.70;;;2.20;;
52614;SDS011;38508;53.158;6.614;2022-07-30T02:02:38;2.75;;;2.08;;
52614;SDS011;38508;53.158;6.614;2022-07-30T02:05:05;3.83;;;2.50;;
52614;SDS011;38508;53.158;6.614;2022-07-30T02:07:35;2.90;;;2.53;;
52614;SDS011;38508;53.158;6.614;2022-07-30T02:10:10;5.70;;;2.88;;
52614;SDS011;38508;53.158;6.614;2022-07-30T02:12:47;3.00;;;2.30;;
52614;SDS011;38508;53.158;6.614;2022-07-30T02:18:12;3.22;;;2.30;;
52614;SDS011;38508;53.158;6.614;2022-07-30T02:21:04;3.25;;;2.05;;
52614;SDS011;38508;53.158;6.614;2022-07-30T02:23:34;3.28;;;2.47;;
52614;SDS011;38508;53.158;6.614;2022-07-30T02:26:05;4.28;;;2.22;;
52614;SDS011;38508;53.158;6.614;2022-07-30T02:28:35;2.78;;;2.45;;
52614;SDS011;38508;53.158;6.614;2022-07-30T02:31:03;5.03;;;3.38;;
52614;SDS011;38508;53.158;6.614;2022-07-30T02:33:39;4.57;;;3.78;;
52614;SDS011;38508;53.158;6.614;2022-07-30T02:36:07;4.15;;;3.17;;
52614;SDS011;38508;53.158;6.614;2022-07-30T02:38:34;5.25;;;3.60;;
52614;SDS011;38508;53.158;6.614;2022-07-30T02:41:02;3.78;;;3.25;;
52614;SDS011;38508;53.158;6.614;2022-07-30T02:43:31;5.22;;;3.80;;
52614;SDS011;38508;53.158;6.614;2022-07-30T02:45:58;3.40;;;3.08;;
52614;SDS011;38508;53.158;6.614;2022-07-30T02:48:25;5.32;;;3.13;;
52614;SDS011;38508;53.158;6.614;2022-07-30T02:50:53;3.90;;;3.33;;
52614;SDS011;38508;53.158;6.614;2022-07-30T02:53:21;5.03;;;3.28;;
52614;SDS011;38508;53.158;6.614;2022-07-30T02:55:48;2.90;;;2.42;;
52614;SDS011;38508;53.158;6.614;2022-07-30T02:58:18;2.88;;;2.10;;
52614;SDS011;38508;53.158;6.614;2022-07-30T03:00:46;2.33;;;1.70;;
52614;SDS011;38508;53.158;6.614;2022-07-30T03:03:13;1.98;;;1.70;;
52614;SDS011;38508;53.158;6.614;2022-07-30T03:05:40;7.50;;;2.70;;
52614;SDS011;38508;53.158;6.614;2022-07-30T03:08:07;2.80;;;2.15;;
52614;SDS011;38508;53.158;6.614;2022-07-30T03:10:33;3.40;;;2.33;;
52614;SDS011;38508;53.158;6.614;2022-07-30T03:13:01;2.90;;;2.60;;
52614;SDS011;38508;53.158;6.614;2022-07-30T03:15:30;2.33;;;2.10;;
52614;SDS011;38508;53.158;6.614;2022-07-30T03:17:59;3.55;;;2.30;;
52614;SDS011;38508;53.158;6.614;2022-07-30T03:20:27;2.67;;;2.00;;
52614;SDS011;38508;53.158;6.614;2022-07-30T03:22:56;2.63;;;2.42;;
52614;SDS011;38508;53.158;6.614;2022-07-30T03:25:24;3.08;;;2.22;;
52614;SDS011;38508;53.158;6.614;2022-07-30T03:27:51;2.53;;;2.20;;
52614;SDS011;38508;53.158;6.614;2022-07-30T03:30:18;4.90;;;2.33;;
52614;SDS011;38508;53.158;6.614;2022-07-30T03:32:45;3.78;;;2.83;;
52614;SDS011;38508;53.158;6.614;2022-07-30T03:35:11;4.32;;;2.80;;
52614;SDS011;38508;53.158;6.614;2022-07-30T03:37:39;6.95;;;4.07;;
52614;SDS011;38508;53.158;6.614;2022-07-30T03:40:07;7.40;;;4.90;;
52614;SDS011;38508;53.158;6.614;2022-07-30T03:42:33;7.22;;;4.43;;
52614;SDS011;38508;53.158;6.614;2022-07-30T03:45:03;8.50;;;6.28;;
52614;SDS011;38508;53.158;6.614;2022-07-30T03:47:46;6.67;;;5.17;;
52614;SDS011;38508;53.158;6.614;2022-07-30T03:50:12;6.38;;;4.45;;
52614;SDS011;38508;53.158;6.614;2022-07-30T03:52:39;7.25;;;5.25;;
52614;SDS011;38508;53.158;6.614;2022-07-30T03:55:07;7.50;;;5.47;;
52614;SDS011;38508;53.158;6.614;2022-07-30T03:57:34;10.80;;;5.82;;
52614;SDS011;38508;53.158;6.614;2022-07-30T04:00:02;10.50;;;5.50;;
52614;SDS011;38508;53.158;6.614;2022-07-30T04:02:30;8.32;;;5.88;;
52614;SDS011;38508;53.158;6.614;2022-07-30T04:04:56;6.05;;;5.30;;
52614;SDS011;38508;53.158;6.614;2022-07-30T04:07:22;9.23;;;5.90;;
52614;SDS011;38508;53.158;6.614;2022-07-30T04:09:47;6.55;;;5.40;;
52614;SDS011;38508;53.158;6.614;2022-07-30T04:12:13;8.80;;;6.15;;
52614;SDS011;38508;53.158;6.614;2022-07-30T04:14:42;8.73;;;6.45;;
52614;SDS011;38508;53.158;6.614;2022-07-30T04:17:12;9.32;;;7.20;;
52614;SDS011;38508;53.158;6.614;2022-07-30T04:19:48;10.32;;;7.28;;
52614;SDS011;38508;53.158;6.614;2022-07-30T04:22:20;9.27;;;6.97;;
52614;SDS011;38508;53.158;6.614;2022-07-30T04:24:51;12.15;;;6.65;;
52614;SDS011;38508;53.158;6.614;2022-07-30T04:27:17;9.65;;;6.88;;
52614;SDS011;38508;53.158;6.614;2022-07-30T04:29:44;10.57;;;7.60;;
52614;SDS011;38508;53.158;6.614;2022-07-30T04:32:10;9.85;;;7.72;;
52614;SDS011;38508;53.158;6.614;2022-07-30T04:34:44;8.43;;;7.07;;
52614;SDS011;38508;53.158;6.614;2022-07-30T04:37:15;12.32;;;7.03;;
52614;SDS011;38508;53.158;6.614;2022-07-30T04:39:42;10.30;;;6.88;;
52614;SDS011;38508;53.158;6.614;2022-07-30T04:42:08;8.38;;;6.55;;
52614;SDS011;38508;53.158;6.614;2022-07-30T04:44:35;10.18;;;7.20;;
52614;SDS011;38508;53.158;6.614;2022-07-30T04:47:01;12.55;;;7.05;;
52614;SDS011;38508;53.158;6.614;2022-07-30T04:49:26;8.30;;;6.22;;
52614;SDS011;38508;53.158;6.614;2022-07-30T04:51:53;9.73;;;6.85;;
52614;SDS011;38508;53.158;6.614;2022-07-30T04:54:20;9.55;;;7.05;;
52614;SDS011;38508;53.158;6.614;2022-07-30T04:56:47;9.50;;;7.03;;
52614;SDS011;38508;53.158;6.614;2022-07-30T04:59:15;11.55;;;8.00;;
52614;SDS011;38508;53.158;6.614;2022-07-30T05:01:43;7.00;;;6.05;;
52614;SDS011;38508;53.158;6.614;2022-07-30T05:04:13;9.40;;;7.05;;
52614;SDS011;38508;53.158;6.614;2022-07-30T05:06:40;9.02;;;6.70;;
52614;SDS011;38508;53.158;6.614;2022-07-30T05:09:07;8.30;;;6.97;;
52614;SDS011;38508;53.158;6.614;2022-07-30T05:11:33;12.00;;;8.48;;
52614;SDS011;38508;53.158;6.614;2022-07-30T05:13:59;11.10;;;8.10;;
52614;SDS011;38508;53.158;6.614;2022-07-30T05:16:25;10.52;;;8.93;;
52614;SDS011;38508;53.158;6.614;2022-07-30T05:18:51;11.02;;;8.32;;
52614;SDS011;38508;53.158;6.614;2022-07-30T05:21:17;11.27;;;9.05;;
52614;SDS011;38508;53.158;6.614;2022-07-30T05:23:42;14.25;;;9.20;;
52614;SDS011;38508;53.158;6.614;2022-07-30T05:26:09;15.38;;;11.32;;
52614;SDS011;38508;53.158;6.614;2022-07-30T05:28:35;16.40;;;11.45;;
52614;SDS011;38508;53.158;6.614;2022-07-30T05:31:00;16.25;;;11.23;;
52614;SDS011;38508;53.158;6.614;2022-07-30T05:33:26;17.95;;;12.13;;
52614;SDS011;38508;53.158;6.614;2022-07-30T05:35:52;15.50;;;11.90;;
52614;SDS011;38508;53.158;6.614;2022-07-30T05:38:18;19.30;;;13.55;;
52614;SDS011;38508;53.158;6.614;2022-07-30T05:40:44;24.08;;;17.23;;
52614;SDS011;38508;53.158;6.614;2022-07-30T05:43:10;24.15;;;17.63;;
52614;SDS011;38508;53.158;6.614;2022-07-30T05:45:37;24.70;;;18.55;;
52614;SDS011;38508;53.158;6.614;2022-07-30T05:48:02;20.23;;;16.58;;
52614;SDS011;38508;53.158;6.614;2022-07-30T05:50:28;30.02;;;19.88;;
52614;SDS011;38508;53.158;6.614;2022-07-30T05:52:54;24.80;;;15.50;;
52614;SDS011;38508;53.158;6.614;2022-07-30T05:55:22;24.42;;;17.77;;
52614;SDS011;38508;53.158;6.614;2022-07-30T05:57:48;29.55;;;18.13;;
52614;SDS011;38508;53.158;6.614;2022-07-30T06:00:13;27.60;;;19.80;;
52614;SDS011;38508;53.158;6.614;2022-07-30T06:02:40;28.95;;;20.30;;
52614;SDS011;38508;53.158;6.614;2022-07-30T06:05:06;31.45;;;20.00;;
52614;SDS011;38508;53.158;6.614;2022-07-30T06:07:32;29.75;;;19.88;;
52614;SDS011;38508;53.158;6.614;2022-07-30T06:09:58;26.83;;;18.17;;
52614;SDS011;38508;53.158;6.614;2022-07-30T06:12:29;25.88;;;18.48;;
52614;SDS011;38508;53.158;6.614;2022-07-30T06:14:55;24.75;;;17.17;;
52614;SDS011;38508;53.158;6.614;2022-07-30T06:17:22;26.92;;;18.00;;
52614;SDS011;38508;53.158;6.614;2022-07-30T06:19:48;26.67;;;17.17;;
52614;SDS011;38508;53.158;6.614;2022-07-30T06:22:15;23.17;;;17.05;;
52614;SDS011;38508;53.158;6.614;2022-07-30T06:24:41;26.40;;;17.58;;
52614;SDS011;38508;53.158;6.614;2022-07-30T06:27:07;25.33;;;17.80;;
52614;SDS011;38508;53.158;6.614;2022-07-30T06:29:32;24.05;;;16.13;;
52614;SDS011;38508;53.158;6.614;2022-07-30T06:31:58;22.73;;;16.73;;
52614;SDS011;38508;53.158;6.614;2022-07-30T06:34:24;22.80;;;15.25;;
52614;SDS011;38508;53.158;6.614;2022-07-30T06:36:49;18.38;;;15.23;;
52614;SDS011;38508;53.158;6.614;2022-07-30T06:39:15;20.58;;;15.15;;
52614;SDS011;38508;53.158;6.614;2022-07-30T06:41:41;21.00;;;14.73;;
52614;SDS011;38508;53.158;6.614;2022-07-30T06:44:06;22.05;;;13.90;;
52614;SDS011;38508;53.158;6.614;2022-07-30T06:46:32;21.35;;;13.43;;
52614;SDS011;38508;53.158;6.614;2022-07-30T06:48:58;18.67;;;12.73;;
52614;SDS011;38508;53.158;6.614;2022-07-30T06:51:23;18.42;;;13.32;;
52614;SDS011;38508;53.158;6.614;2022-07-30T06:53:49;19.25;;;13.55;;
52614;SDS011;38508;53.158;6.614;2022-07-30T06:56:15;27.85;;;14.27;;
52614;SDS011;38508;53.158;6.614;2022-07-30T06:58:40;25.85;;;13.70;;
52614;SDS011;38508;53.158;6.614;2022-07-30T07:01:06;22.83;;;13.73;;
52614;SDS011;38508;53.158;6.614;2022-07-30T07:03:32;22.73;;;13.95;;
52614;SDS011;38508;53.158;6.614;2022-07-30T07:05:57;18.40;;;12.57;;
52614;SDS011;38508;53.158;6.614;2022-07-30T07:08:23;26.55;;;14.23;;
52614;SDS011;38508;53.158;6.614;2022-07-30T07:10:48;24.02;;;14.40;;
52614;SDS011;38508;53.158;6.614;2022-07-30T07:13:14;21.50;;;13.00;;
52614;SDS011;38508;53.158;6.614;2022-07-30T07:15:40;21.33;;;12.50;;
52614;SDS011;38508;53.158;6.614;2022-07-30T07:18:06;21.42;;;12.20;;
52614;SDS011;38508;53.158;6.614;2022-07-30T07:20:32;22.55;;;11.82;;
52614;SDS011;38508;53.158;6.614;2022-07-30T07:22:59;19.90;;;10.88;;
52614;SDS011;38508;53.158;6.614;2022-07-30T07:25:25;17.15;;;11.02;;
52614;SDS011;38508;53.158;6.614;2022-07-30T07:27:51;15.68;;;10.75;;
52614;SDS011;38508;53.158;6.614;2022-07-30T07:30:17;22.65;;;10.52;;
52614;SDS011;38508;53.158;6.614;2022-07-30T07:32:42;14.48;;;9.35;;
52614;SDS011;38508;53.158;6.614;2022-07-30T07:35:08;15.75;;;10.13;;
52614;SDS011;38508;53.158;6.614;2022-07-30T07:37:34;16.90;;;9.38;;
52614;SDS011;38508;53.158;6.614;2022-07-30T07:39:59;17.73;;;9.23;;
52614;SDS011;38508;53.158;6.614;2022-07-30T07:42:25;15.52;;;7.85;;
52614;SDS011;38508;53.158;6.614;2022-07-30T07:44:51;15.95;;;9.23;;
52614;SDS011;38508;53.158;6.614;2022-07-30T07:47:16;20.48;;;8.98;;
52614;SDS011;38508;53.158;6.614;2022-07-30T07:49:42;19.48;;;9.88;;
52614;SDS011;38508;53.158;6.614;2022-07-30T07:52:08;17.75;;;8.88;;
52614;SDS011;38508;53.158;6.614;2022-07-30T07:54:33;16.98;;;8.70;;
52614;SDS011;38508;53.158;6.614;2022-07-30T07:56:59;22.98;;;9.63;;
52614;SDS011;38508;53.158;6.614;2022-07-30T07:59:25;14.57;;;8.45;;
52614;SDS011;38508;53.158;6.614;2022-07-30T08:01:51;14.75;;;8.48;;
52614;SDS011;38508;53.158;6.614;2022-07-30T08:04:17;13.75;;;8.02;;
52614;SDS011;38508;53.158;6.614;2022-07-30T08:06:42;18.30;;;8.18;;
52614;SDS011;38508;53.158;6.614;2022-07-30T08:09:08;13.63;;;8.93;;
52614;SDS011;38508;53.158;6.614;2022-07-30T08:11:33;12.85;;;8.43;;
52614;SDS011;38508;53.158;6.614;2022-07-30T08:13:59;17.70;;;8.35;;
52614;SDS011;38508;53.158;6.614;2022-07-30T08:16:25;13.88;;;7.68;;
52614;SDS011;38508;53.158;6.614;2022-07-30T08:18:50;15.63;;;7.40;;
52614;SDS011;38508;53.158;6.614;2022-07-30T08:21:16;14.10;;;7.43;;
52614;SDS011;38508;53.158;6.614;2022-07-30T08:23:42;14.25;;;7.13;;
52614;SDS011;38508;53.158;6.614;2022-07-30T08:26:07;11.30;;;6.10;;
52614;SDS011;38508;53.158;6.614;2022-07-30T08:28:34;14.18;;;6.82;;
52614;SDS011;38508;53.158;6.614;2022-07-30T08:31:00;12.77;;;5.80;;
52614;SDS011;38508;53.158;6.614;2022-07-30T08:33:26;13.75;;;5.90;;
52614;SDS011;38508;53.158;6.614;2022-07-30T08:35:51;16.23;;;6.30;;
52614;SDS011;38508;53.158;6.614;2022-07-30T08:38:17;12.30;;;6.07;;
52614;SDS011;38508;53.158;6.614;2022-07-30T08:40:43;13.93;;;6.18;;
52614;SDS011;38508;53.158;6.614;2022-07-30T08:43:09;12.75;;;6.05;;
52614;SDS011;38508;53.158;6.614;2022-07-30T08:45:35;11.30;;;5.35;;
52614;SDS011;38508;53.158;6.614;2022-07-30T08:48:01;9.90;;;5.05;;
52614;SDS011;38508;53.158;6.614;2022-07-30T08:50:30;9.07;;;4.88;;
52614;SDS011;38508;53.158;6.614;2022-07-30T08:52:57;9.02;;;4.13;;
52614;SDS011;38508;53.158;6.614;2022-07-30T08:55:25;9.95;;;4.80;;
52614;SDS011;38508;53.158;6.614;2022-07-30T08:57:51;12.48;;;5.20;;
52614;SDS011;38508;53.158;6.614;2022-07-30T09:00:17;11.85;;;4.80;;
52614;SDS011;38508;53.158;6.614;2022-07-30T09:02:43;10.32;;;4.70;;
52614;SDS011;38508;53.158;6.614;2022-07-30T09:05:09;18.88;;;4.70;;
52614;SDS011;38508;53.158;6.614;2022-07-30T09:07:35;10.57;;;4.22;;
52614;SDS011;38508;53.158;6.614;2022-07-30T09:10:05;12.82;;;4.38;;
52614;SDS011;38508;53.158;6.614;2022-07-30T09:15:02;14.43;;;4.70;;
52614;SDS011;38508;53.158;6.614;2022-07-30T09:17:43;9.38;;;4.40;;
52614;SDS011;38508;53.158;6.614;2022-07-30T09:20:15;6.65;;;3.33;;
52614;SDS011;38508;53.158;6.614;2022-07-30T09:22:43;6.57;;;3.13;;
52614;SDS011;38508;53.158;6.614;2022-07-30T09:25:22;13.43;;;4.20;;
52614;SDS011;38508;53.158;6.614;2022-07-30T09:28:00;6.25;;;2.75;;
52614;SDS011;38508;53.158;6.614;2022-07-30T09:30:26;8.45;;;3.05;;
52614;SDS011;38508;53.158;6.614;2022-07-30T09:33:13;9.27;;;3.65;;
52614;SDS011;38508;53.158;6.614;2022-07-30T09:35:40;5.85;;;3.10;;
52614;SDS011;38508;53.158;6.614;2022-07-30T09:38:07;12.07;;;3.63;;
52614;SDS011;38508;53.158;6.614;2022-07-30T09:40:33;10.27;;;3.70;;
52614;SDS011;38508;53.158;6.614;2022-07-30T09:45:31;10.07;;;4.40;;
52614;SDS011;38508;53.158;6.614;2022-07-30T09:47:58;11.85;;;3.00;;
52614;SDS011;38508;53.158;6.614;2022-07-30T09:50:24;8.93;;;2.78;;
52614;SDS011;38508;53.158;6.614;2022-07-30T09:52:51;11.30;;;3.58;;
52614;SDS011;38508;53.158;6.614;2022-07-30T09:55:30;8.23;;;2.90;;
52614;SDS011;38508;53.158;6.614;2022-07-30T09:58:02;10.45;;;2.90;;
52614;SDS011;38508;53.158;6.614;2022-07-30T10:00:30;7.90;;;3.03;;
52614;SDS011;38508;53.158;6.614;2022-07-30T10:02:58;9.68;;;3.53;;
52614;SDS011;38508;53.158;6.614;2022-07-30T10:05:24;8.35;;;3.28;;
52614;SDS011;38508;53.158;6.614;2022-07-30T10:07:55;10.10;;;3.35;;
52614;SDS011;38508;53.158;6.614;2022-07-30T10:10:27;7.15;;;2.92;;
52614;SDS011;38508;53.158;6.614;2022-07-30T10:12:58;10.30;;;2.58;;
52614;SDS011;38508;53.158;6.614;2022-07-30T10:15:29;9.38;;;2.72;;
52614;SDS011;38508;53.158;6.614;2022-07-30T10:17:56;11.00;;;3.05;;
52614;SDS011;38508;53.158;6.614;2022-07-30T10:20:23;4.80;;;2.83;;
52614;SDS011;38508;53.158;6.614;2022-07-30T10:22:49;7.50;;;2.60;;
52614;SDS011;38508;53.158;6.614;2022-07-30T10:25:18;12.35;;;3.03;;
52614;SDS011;38508;53.158;6.614;2022-07-30T10:27:46;7.28;;;2.97;;
52614;SDS011;38508;53.158;6.614;2022-07-30T10:30:13;6.43;;;3.13;;
52614;SDS011;38508;53.158;6.614;2022-07-30T10:32:39;12.90;;;2.97;;
52614;SDS011;38508;53.158;6.614;2022-07-30T10:35:05;7.95;;;2.80;;
52614;SDS011;38508;53.158;6.614;2022-07-30T10:37:33;7.40;;;2.72;;
52614;SDS011;38508;53.158;6.614;2022-07-30T10:40:17;8.38;;;2.67;;
52614;SDS011;38508;53.158;6.614;2022-07-30T10:43:13;9.57;;;2.63;;
52614;SDS011;38508;53.158;6.614;2022-07-30T10:45:54;7.25;;;2.42;;
52614;SDS011;38508;53.158;6.614;2022-07-30T10:48:40;7.10;;;2.65;;
52614;SDS011;38508;53.158;6.614;2022-07-30T10:51:06;5.53;;;2.72;;
52614;SDS011;38508;53.158;6.614;2022-07-30T10:53:38;8.30;;;2.90;;
52614;SDS011;38508;53.158;6.614;2022-07-30T10:56:22;6.93;;;2.83;;
52614;SDS011;38508;53.158;6.614;2022-07-30T10:59:01;4.97;;;2.22;;
52614;SDS011;38508;53.158;6.614;2022-07-30T11:04:16;8.00;;;2.38;;
52614;SDS011;38508;53.158;6.614;2022-07-30T11:06:42;8.00;;;2.72;;
52614;SDS011;38508;53.158;6.614;2022-07-30T11:12:00;11.00;;;2.40;;
52614;SDS011;38508;53.158;6.614;2022-07-30T11:17:10;6.85;;;2.30;;
52614;SDS011;38508;53.158;6.614;2022-07-30T11:22:36;5.32;;;2.42;;
52614;SDS011;38508;53.158;6.614;2022-07-30T11:25:04;9.60;;;2.10;;
52614;SDS011;38508;53.158;6.614;2022-07-30T11:30:05;7.47;;;2.20;;
52614;SDS011;38508;53.158;6.614;2022-07-30T11:35:29;6.60;;;2.20;;
52614;SDS011;38508;53.158;6.614;2022-07-30T11:38:03;7.63;;;2.42;;
52614;SDS011;38508;53.158;6.614;2022-07-30T11:43:19;7.55;;;2.50;;
52614;SDS011;38508;53.158;6.614;2022-07-30T11:49:00;6.15;;;2.92;;
52614;SDS011;38508;53.158;6.614;2022-07-30T11:51:39;8.32;;;2.75;;
52614;SDS011;38508;53.158;6.614;2022-07-30T11:54:06;6.28;;;2.20;;
52614;SDS011;38508;53.158;6.614;2022-07-30T11:56:34;5.47;;;1.80;;
52614;SDS011;38508;53.158;6.614;2022-07-30T11:59:04;9.40;;;3.00;;
52614;SDS011;38508;53.158;6.614;2022-07-30T12:01:31;8.15;;;2.10;;
52614;SDS011;38508;53.158;6.614;2022-07-30T12:04:02;5.22;;;2.10;;
52614;SDS011;38508;53.158;6.614;2022-07-30T12:06:29;5.18;;;2.00;;
52614;SDS011;38508;53.158;6.614;2022-07-30T12:08:56;6.38;;;1.75;;
52614;SDS011;38508;53.158;6.614;2022-07-30T12:11:22;7.20;;;2.20;;
52614;SDS011;38508;53.158;6.614;2022-07-30T12:13:58;12.98;;;2.08;;
52614;SDS011;38508;53.158;6.614;2022-07-30T12:16:26;4.72;;;1.67;;
52614;SDS011;38508;53.158;6.614;2022-07-30T12:18:52;7.07;;;1.70;;
52614;SDS011;38508;53.158;6.614;2022-07-30T12:21:18;5.13;;;1.70;;
52614;SDS011;38508;53.158;6.614;2022-07-30T12:24:01;5.88;;;1.52;;
52614;SDS011;38508;53.158;6.614;2022-07-30T12:26:37;4.30;;;1.52;;
52614;SDS011;38508;53.158;6.614;2022-07-30T12:29:07;5.32;;;1.75;;
52614;SDS011;38508;53.158;6.614;2022-07-30T12:31:38;4.25;;;1.50;;
52614;SDS011;38508;53.158;6.614;2022-07-30T12:34:17;4.15;;;1.48;;
52614;SDS011;38508;53.158;6.614;2022-07-30T12:36:44;7.53;;;1.77;;
52614;SDS011;38508;53.158;6.614;2022-07-30T12:39:17;4.93;;;1.90;;
52614;SDS011;38508;53.158;6.614;2022-07-30T12:41:52;6.43;;;1.67;;
52614;SDS011;38508;53.158;6.614;2022-07-30T12:44:39;5.38;;;1.60;;
52614;SDS011;38508;53.158;6.614;2022-07-30T12:47:21;4.55;;;1.90;;
52614;SDS011;38508;53.158;6.614;2022-07-30T12:49:51;3.83;;;1.30;;
52614;SDS011;38508;53.158;6.614;2022-07-30T12:52:19;7.13;;;1.67;;
52614;SDS011;38508;53.158;6.614;2022-07-30T13:00:04;3.80;;;1.70;;
52614;SDS011;38508;53.158;6.614;2022-07-30T13:02:33;6.43;;;1.42;;
52614;SDS011;38508;53.158;6.614;2022-07-30T13:05:00;6.45;;;1.80;;
52614;SDS011;38508;53.158;6.614;2022-07-30T13:07:26;3.40;;;1.33;;
52614;SDS011;38508;53.158;6.614;2022-07-30T13:12:51;8.30;;;1.50;;
52614;SDS011;38508;53.158;6.614;2022-07-30T13:15:17;5.50;;;1.75;;
52614;SDS011;38508;53.158;6.614;2022-07-30T13:17:44;7.53;;;1.70;;
52614;SDS011;38508;53.158;6.614;2022-07-30T13:20:10;4.00;;;1.48;;
52614;SDS011;38508;53.158;6.614;2022-07-30T13:22:37;5.20;;;1.33;;
52614;SDS011;38508;53.158;6.614;2022-07-30T13:25:02;3.75;;;1.17;;
52614;SDS011;38508;53.158;6.614;2022-07-30T13:27:28;4.03;;;1.40;;
52614;SDS011;38508;53.158;6.614;2022-07-30T13:29:54;6.38;;;1.25;;
52614;SDS011;38508;53.158;6.614;2022-07-30T13:32:19;3.67;;;1.30;;
52614;SDS011;38508;53.158;6.614;2022-07-30T13:34:45;5.07;;;1.65;;
52614;SDS011;38508;53.158;6.614;2022-07-30T13:37:11;6.82;;;1.58;;
52614;SDS011;38508;53.158;6.614;2022-07-30T13:39:36;4.57;;;1.30;;
52614;SDS011;38508;53.158;6.614;2022-07-30T13:42:02;3.95;;;1.30;;
52614;SDS011;38508;53.158;6.614;2022-07-30T13:44:29;2.63;;;1.25;;
52614;SDS011;38508;53.158;6.614;2022-07-30T13:46:55;3.60;;;1.23;;
52614;SDS011;38508;53.158;6.614;2022-07-30T13:49:21;3.10;;;1.33;;
52614;SDS011;38508;53.158;6.614;2022-07-30T13:51:47;7.30;;;1.42;;
52614;SDS011;38508;53.158;6.614;2022-07-30T13:54:12;6.68;;;1.73;;
52614;SDS011;38508;53.158;6.614;2022-07-30T13:56:38;2.63;;;1.20;;
52614;SDS011;38508;53.158;6.614;2022-07-30T13:59:04;8.18;;;1.20;;
52614;SDS011;38508;53.158;6.614;2022-07-30T14:01:30;4.93;;;1.20;;
52614;SDS011;38508;53.158;6.614;2022-07-30T14:03:56;3.95;;;1.52;;
52614;SDS011;38508;53.158;6.614;2022-07-30T14:06:22;5.30;;;1.50;;
52614;SDS011;38508;53.158;6.614;2022-07-30T14:08:47;4.22;;;1.20;;
52614;SDS011;38508;53.158;6.614;2022-07-30T14:11:13;5.80;;;1.35;;
52614;SDS011;38508;53.158;6.614;2022-07-30T14:13:40;3.70;;;1.20;;
52614;SDS011;38508;53.158;6.614;2022-07-30T14:16:06;4.25;;;1.27;;
52614;SDS011;38508;53.158;6.614;2022-07-30T14:18:32;3.35;;;1.20;;
52614;SDS011;38508;53.158;6.614;2022-07-30T14:20:57;5.63;;;1.35;;
52614;SDS011;38508;53.158;6.614;2022-07-30T14:23:24;3.83;;;1.40;;
52614;SDS011;38508;53.158;6.614;2022-07-30T14:25:50;2.78;;;1.10;;
52614;SDS011;38508;53.158;6.614;2022-07-30T14:28:16;7.07;;;1.60;;
52614;SDS011;38508;53.158;6.614;2022-07-30T14:30:41;4.10;;;1.20;;
52614;SDS011;38508;53.158;6.614;2022-07-30T14:33:07;4.00;;;1.30;;
52614;SDS011;38508;53.158;6.614;2022-07-30T14:35:33;4.93;;;1.25;;
52614;SDS011;38508;53.158;6.614;2022-07-30T14:37:59;5.22;;;1.15;;
52614;SDS011;38508;53.158;6.614;2022-07-30T14:40:24;2.92;;;1.20;;
52614;SDS011;38508;53.158;6.614;2022-07-30T14:42:50;2.65;;;1.20;;
52614;SDS011;38508;53.158;6.614;2022-07-30T14:45:16;4.68;;;1.15;;
52614;SDS011;38508;53.158;6.614;2022-07-30T14:47:41;5.10;;;1.10;;
52614;SDS011;38508;53.158;6.614;2022-07-30T14:50:07;5.95;;;1.20;;
52614;SDS011;38508;53.158;6.614;2022-07-30T14:52:34;4.20;;;1.48;;
52614;SDS011;38508;53.158;6.614;2022-07-30T14:55:03;3.72;;;1.02;;
52614;SDS011;38508;53.158;6.614;2022-07-30T14:57:33;2.97;;;1.30;;
52614;SDS011;38508;53.158;6.614;2022-07-30T14:59:59;2.80;;;1.00;;
52614;SDS011;38508;53.158;6.614;2022-07-30T15:02:25;4.45;;;1.00;;
52614;SDS011;38508;53.158;6.614;2022-07-30T15:04:51;4.00;;;1.05;;
52614;SDS011;38508;53.158;6.614;2022-07-30T15:07:17;4.93;;;1.33;;
52614;SDS011;38508;53.158;6.614;2022-07-30T15:09:43;5.63;;;1.23;;
52614;SDS011;38508;53.158;6.614;2022-07-30T15:12:08;5.07;;;1.05;;
52614;SDS011;38508;53.158;6.614;2022-07-30T15:14:35;1.88;;;1.10;;
52614;SDS011;38508;53.158;6.614;2022-07-30T15:17:02;2.70;;;0.88;;
52614;SDS011;38508;53.158;6.614;2022-07-30T15:19:27;6.57;;;1.10;;
52614;SDS011;38508;53.158;6.614;2022-07-30T15:21:53;4.40;;;1.10;;
52614;SDS011;38508;53.158;6.614;2022-07-30T15:24:19;3.35;;;1.60;;
52614;SDS011;38508;53.158;6.614;2022-07-30T15:26:45;4.25;;;1.00;;
52614;SDS011;38508;53.158;6.614;2022-07-30T15:29:10;2.00;;;0.85;;